map of EAR home
EAR - Airport
Location
City:  Kearney, Nebraska, United States
Name:Kearney Regional
ICAO:KEAR
IATA:EAR
FAA LID:EAR

Details
Type:Airport (Part 139 Class I)
Use:Public/Civil
Latitude:4043'37"N (40.727028)
Longitude:9900'24"W (-99.006777)
Datum:WGS 1984
Elevation:2131 ft (650 m)
Variation:4.71E (WMM2015 magnetic declination)
-0.10 annual change
Runways:2
Longest:7094 × 150 ft (2162 × 45.5 m), paved

Time
Time Zone:UTC-6 (DST-5)
Local Time:

Weather
METAR:KEAR 152056Z AUTO 24015G20KT 10SM CLR 11/M07 A2986 RMK AO2 SLP119 T01061067 56034
TAF:KEAR 151733Z 1518/1618 23014KT P6SM FEW250
FM160000 23006KT P6SM FEW250

Related Locations
Nearby:
Farthest:RRG: 10654 mi / 17146 km
Plaine Corail [Sir Gatan Duval Airport (Plaine Corail Airport)], Rodrigues Island, MU

Find:

   beyond  
but within

Other Information
Maps:
NOTAMs:
Links:
Sources:

  
flag of United States
flag of Nebraska
  

Airport Diagram

Airport diagram for EAR

Airport diagram PDF

Sectional Chart

Flight Planning
at skyvector.com

Satellite Image

Google Maps Satellite view

 

Copyright © 2004-2017 Karl L. Swartz. All rights reserved.
The Great Circle Mapper name and logo are trademarks of the Great Circle Mapper.
All other trademarks mentioned herein belong to their respective owners.
Please see credits for attibutions and further copyright information.

  Follow gcmap on Facebook Follow gcmap on Twitter Follow gcmap on Google+ GCmap on LinkedIn

hCard Microformat

Geo Microformat